Time;durP1;ratioP1;P1;durP2;ratioP2;P2;SDS_P1;SDS_P2;PMS_P1;PMS_P2;Temp;Humidity;BMP_temperature;BMP_pressure;BME280_temperature;BME280_humidity;BME280_pressure;Samples;Min_cycle;Max_cycle;Signal;HPM_P1;HPM_P2
2023/01/07 00:01:17;;;;;;;3.15;1.23;;;9.10;99.90;;;;;;5097328;28;20119;-84
2023/01/07 00:03:45;;;;;;;1.70;1.17;;;9.20;99.90;;;;;;5097281;28;20162;-83
2023/01/07 00:06:32;;;;;;;1.63;1.48;;;9.20;99.90;;;;;;5097383;28;20044;-83
2023/01/07 00:08:58;;;;;;;3.05;1.42;;;9.30;99.90;;;;;;5096842;28;20036;-83
2023/01/07 00:11:26;;;;;;;3.13;1.48;;;9.30;99.90;;;;;;5097334;28;20122;-83
2023/01/07 00:13:54;;;;;;;2.83;2.53;;;9.40;99.90;;;;;;5097484;28;20055;-83
2023/01/07 00:16:22;;;;;;;1.45;1.00;;;9.50;99.90;;;;;;5097925;28;20044;-82
2023/01/07 00:18:50;;;;;;;1.13;0.98;;;9.50;99.90;;;;;;5097160;28;20132;-83
2023/01/07 00:21:17;;;;;;;3.08;1.05;;;9.50;99.90;;;;;;5097939;28;20127;-82
2023/01/07 00:23:44;;;;;;;0.63;0.63;;;9.50;99.90;;;;;;5097418;28;20040;-82
2023/01/07 00:26:15;;;;;;;8.30;2.20;;;9.50;99.90;;;;;;5097566;28;20098;-82
2023/01/07 00:28:42;;;;;;;0.98;0.88;;;9.60;99.90;;;;;;5096844;28;20131;-82
2023/01/07 00:31:11;;;;;;;0.57;0.57;;;9.60;99.90;;;;;;5097763;28;20040;-83
2023/01/07 00:33:50;;;;;;;0.35;0.35;;;9.60;99.90;;;;;;5097511;28;20119;-82
2023/01/07 00:36:16;;;;;;;1.90;1.80;;;9.70;99.90;;;;;;5097295;28;20051;-83
2023/01/07 00:38:42;;;;;;;1.40;1.30;;;9.70;99.90;;;;;;5096691;28;20052;-83
2023/01/07 00:41:08;;;;;;;2.10;1.85;;;9.70;99.90;;;;;;5096984;28;20119;-82
2023/01/07 00:43:34;;;;;;;1.58;1.15;;;9.70;99.90;;;;;;5097497;28;20079;-83
2023/01/07 00:45:59;;;;;;;2.65;1.48;;;9.70;99.90;;;;;;5097111;28;20036;-82
2023/01/07 00:48:25;;;;;;;1.60;1.27;;;9.80;99.90;;;;;;5096719;28;20076;-83
2023/01/07 00:50:52;;;;;;;1.25;0.85;;;9.80;99.90;;;;;;5096603;28;20503;-82
2023/01/07 00:53:17;;;;;;;2.85;0.57;;;9.80;99.90;;;;;;5097051;28;20048;-82
2023/01/07 00:55:44;;;;;;;5.00;1.08;;;9.80;99.90;;;;;;5097073;28;20077;-82
2023/01/07 00:58:15;;;;;;;2.17;1.27;;;9.80;99.90;;;;;;5097149;28;20119;-82
2023/01/07 01:00:40;;;;;;;1.42;1.23;;;9.80;99.90;;;;;;5097605;28;20050;-82
2023/01/07 01:03:07;;;;;;;1.48;1.15;;;9.90;99.90;;;;;;5097299;28;20044;-82
2023/01/07 01:05:33;;;;;;;1.30;1.20;;;9.90;99.90;;;;;;5096953;28;20043;-82
2023/01/07 01:07:58;;;;;;;1.10;0.90;;;9.90;99.90;;;;;;5096612;28;20041;-82
2023/01/07 01:10:24;;;;;;;2.20;1.20;;;9.90;99.90;;;;;;5096999;28;20109;-82
2023/01/07 01:12:50;;;;;;;0.68;0.68;;;10.00;99.90;;;;;;5097286;28;20395;-82
2023/01/07 01:15:16;;;;;;;1.42;1.15;;;10.00;99.90;;;;;;5097950;28;20423;-82
2023/01/07 01:17:42;;;;;;;0.38;0.38;;;10.00;99.90;;;;;;5097934;28;20055;-82
2023/01/07 01:20:11;;;;;;;1.50;1.27;;;10.00;99.90;;;;;;5099508;28;20047;-82
2023/01/07 01:22:37;;;;;;;1.48;1.27;;;10.00;99.90;;;;;;5099888;28;20126;-81
2023/01/07 01:25:03;;;;;;;1.40;0.68;;;10.00;99.90;;;;;;5101665;28;20067;-82
2023/01/07 01:27:30;;;;;;;1.65;1.55;;;10.10;99.90;;;;;;5101716;28;20032;-82
2023/01/07 01:29:56;;;;;;;0.38;0.38;;;10.10;99.90;;;;;;5100708;28;20514;-82
2023/01/07 01:32:22;;;;;;;0.93;0.47;;;10.10;99.90;;;;;;5102698;28;20032;-82
2023/01/07 01:34:47;;;;;;;0.98;0.70;;;10.10;99.90;;;;;;5102608;28;20040;-81
2023/01/07 01:37:13;;;;;;;0.98;0.47;;;10.10;99.90;;;;;;5100292;28;20078;-82
2023/01/07 01:39:38;;;;;;;0.65;0.65;;;10.20;99.90;;;;;;5100697;28;20048;-81
2023/01/07 01:42:04;;;;;;;0.65;0.65;;;10.20;99.90;;;;;;5101276;28;20487;-82
2023/01/07 01:44:33;;;;;;;1.48;1.35;;;10.20;99.90;;;;;;5100574;28;20055;-82
2023/01/07 01:46:59;;;;;;;2.10;1.83;;;10.20;99.90;;;;;;5101901;28;20044;-82
2023/01/07 01:49:29;;;;;;;0.60;0.55;;;10.30;99.90;;;;;;5100238;28;20126;-82
2023/01/07 01:52:03;;;;;;;1.15;0.98;;;10.30;99.90;;;;;;5100617;28;20039;-82
2023/01/07 01:54:29;;;;;;;1.75;1.35;;;10.30;99.90;;;;;;5101814;28;20128;-82
2023/01/07 01:56:59;;;;;;;1.48;1.38;;;10.30;99.90;;;;;;5100012;28;20095;-82
2023/01/07 01:59:28;;;;;;;1.33;0.80;;;10.40;99.90;;;;;;5100553;28;20070;-82
2023/01/07 02:01:54;;;;;;;2.38;1.65;;;10.40;99.90;;;;;;5100853;28;20040;-81
2023/01/07 02:04:23;;;;;;;1.13;1.05;;;10.40;99.90;;;;;;5101387;28;20044;-81
2023/01/07 02:07:13;;;;;;;1.15;1.05;;;10.30;99.90;;;;;;5101758;28;20071;-81
2023/01/07 02:09:39;;;;;;;0.68;0.68;;;10.40;99.90;;;;;;5096422;28;20032;-82
2023/01/07 02:12:17;;;;;;;3.22;2.05;;;10.40;99.90;;;;;;5101371;28;20044;-81
2023/01/07 02:15:02;;;;;;;2.58;1.20;;;10.40;99.90;;;;;;5101722;28;20062;-81
2023/01/07 02:17:53;;;;;;;1.10;0.75;;;10.40;99.90;;;;;;5099653;28;20487;-82
2023/01/07 02:20:34;;;;;;;0.93;0.75;;;10.40;99.90;;;;;;5100962;28;20052;-81
2023/01/07 02:23:30;;;;;;;3.78;2.30;;;10.40;99.90;;;;;;5100208;28;20048;-82
2023/01/07 02:26:09;;;;;;;0.98;0.88;;;10.50;99.90;;;;;;5100048;28;20048;-82
2023/01/07 02:28:58;;;;;;;1.70;1.48;;;10.50;99.90;;;;;;5100362;28;20444;-81
2023/01/07 02:32:01;;;;;;;2.92;1.75;;;10.50;99.90;;;;;;5100225;28;20388;-81
2023/01/07 02:34:35;;;;;;;0.93;0.88;;;10.50;99.90;;;;;;5099502;28;20044;-81
2023/01/07 02:37:11;;;;;;;2.63;1.27;;;10.50;99.90;;;;;;5098986;28;20071;-82
2023/01/07 02:40:14;;;;;;;0.75;0.73;;;10.50;99.90;;;;;;5097835;28;20103;-82
2023/01/07 02:42:58;;;;;;;2.25;1.50;;;10.40;99.90;;;;;;5099168;28;20058;-82
2023/01/07 02:45:31;;;;;;;0.80;0.80;;;10.50;99.90;;;;;;5097609;28;20634;-82
2023/01/07 02:48:07;;;;;;;2.28;1.95;;;10.50;99.90;;;;;;5080841;28;20052;-82
2023/01/07 02:50:33;;;;;;;3.55;3.10;;;10.50;99.90;;;;;;5098634;28;20044;-82
2023/01/07 02:52:58;;;;;;;1.65;0.90;;;10.50;99.90;;;;;;5098368;28;20046;-82
2023/01/07 02:56:01;;;;;;;1.25;0.68;;;10.50;99.90;;;;;;5098406;28;20066;-82
2023/01/07 02:58:42;;;;;;;1.63;1.20;;;10.50;99.90;;;;;;5090255;28;20051;-82
2023/01/07 03:01:34;;;;;;;0.88;0.73;;;10.50;99.90;;;;;;5097791;28;20040;-82
2023/01/07 03:04:33;;;;;;;2.33;1.25;;;10.50;99.90;;;;;;5097829;28;20035;-82
2023/01/07 03:07:17;;;;;;;1.20;1.10;;;10.50;99.90;;;;;;5097414;28;20044;-82
2023/01/07 03:10:09;;;;;;;0.65;0.55;;;10.50;99.90;;;;;;5077773;28;20040;-81
2023/01/07 03:13:10;;;;;;;1.60;1.27;;;10.50;99.90;;;;;;5078107;28;20049;-82
2023/01/07 03:15:47;;;;;;;3.67;1.52;;;10.40;99.90;;;;;;5073935;28;20109;-82
2023/01/07 03:18:28;;;;;;;1.17;1.08;;;10.40;99.90;;;;;;5087755;28;20047;-83
2023/01/07 03:21:02;;;;;;;1.50;1.17;;;10.40;99.90;;;;;;5098185;28;20044;-82
2023/01/07 03:23:29;;;;;;;1.52;1.42;;;10.40;99.90;;;;;;5098556;28;20051;-82
2023/01/07 03:25:59;;;;;;;1.38;1.27;;;10.40;99.90;;;;;;5099083;28;20079;-82
2023/01/07 03:28:28;;;;;;;3.33;1.45;;;10.40;99.90;;;;;;5098652;28;20044;-82
2023/01/07 03:30:56;;;;;;;2.20;1.55;;;10.40;99.90;;;;;;5102131;28;20059;-82
2023/01/07 03:33:55;;;;;;;2.40;1.92;;;10.50;99.90;;;;;;5101264;28;20075;-83
2023/01/07 03:36:29;;;;;;;1.45;1.17;;;10.40;99.90;;;;;;5102444;28;20052;-83
2023/01/07 03:38:56;;;;;;;1.95;0.88;;;10.40;99.90;;;;;;5101419;28;20036;-83
2023/01/07 03:44:06;;;;;;;0.80;0.63;;;10.30;99.90;;;;;;5105545;28;20048;-82
2023/01/07 03:46:33;;;;;;;1.70;1.30;;;10.40;99.90;;;;;;5109995;28;20036;-82
2023/01/07 03:48:58;;;;;;;2.33;1.60;;;10.30;99.90;;;;;;5107981;28;20060;-82
2023/01/07 03:51:24;;;;;;;1.58;1.48;;;10.50;99.90;;;;;;5100642;28;20040;-83
2023/01/07 03:53:49;;;;;;;1.30;1.20;;;10.30;99.90;;;;;;5100031;28;20479;-83
2023/01/07 03:56:15;;;;;;;0.98;0.88;;;10.30;99.90;;;;;;5100276;28;20128;-83
2023/01/07 03:58:41;;;;;;;1.25;1.10;;;10.30;99.90;;;;;;5100259;28;20059;-82
2023/01/07 04:01:06;;;;;;;2.05;1.27;;;10.30;99.90;;;;;;5100826;28;20124;-82
2023/01/07 04:03:32;;;;;;;1.67;1.27;;;10.30;99.90;;;;;;5100499;28;20124;-83
2023/01/07 04:05:57;;;;;;;4.40;3.20;;;11.10;99.90;;;;;;5100186;28;20040;-82
2023/01/07 04:08:23;;;;;;;4.45;1.92;;;10.30;99.90;;;;;;5099094;28;20076;-83
2023/01/07 04:10:48;;;;;;;4.65;2.40;;;10.30;99.90;;;;;;5099628;28;20032;-83
2023/01/07 04:13:14;;;;;;;0.75;0.65;;;10.30;99.90;;;;;;5099889;28;20122;-83
2023/01/07 04:15:41;;;;;;;5.45;1.55;;;10.30;99.90;;;;;;5100229;28;20039;-81
2023/01/07 04:18:07;;;;;;;0.88;0.82;;;10.30;99.90;;;;;;5100485;28;20468;-83
2023/01/07 04:20:33;;;;;;;0.63;0.60;;;10.30;99.90;;;;;;5099661;28;20044;-82
2023/01/07 04:22:58;;;;;;;2.42;1.55;;;10.30;99.90;;;;;;5101154;28;20040;-83
2023/01/07 04:25:24;;;;;;;1.88;1.73;;;10.30;99.90;;;;;;5101411;28;20036;-82
2023/01/07 04:27:49;;;;;;;1.55;1.30;;;10.30;99.90;;;;;;5101007;28;20083;-83
2023/01/07 04:30:15;;;;;;;1.92;1.77;;;10.30;99.90;;;;;;5101724;28;20044;-83
2023/01/07 04:32:41;;;;;;;4.07;1.80;;;10.30;99.90;;;;;;5101015;28;20040;-82
2023/01/07 04:35:07;;;;;;;1.90;1.75;;;10.30;99.90;;;;;;5101231;28;20043;-83
2023/01/07 04:37:32;;;;;;;2.97;1.65;;;10.20;99.90;;;;;;5101700;28;20036;-83
2023/01/07 04:39:58;;;;;;;0.32;0.32;;;10.20;99.90;;;;;;5102012;28;20068;-83
2023/01/07 04:42:24;;;;;;;0.68;0.68;;;10.20;99.90;;;;;;5101487;28;20040;-82
2023/01/07 04:44:49;;;;;;;2.78;2.58;;;10.20;99.90;;;;;;5103110;28;20040;-83
2023/01/07 04:47:15;;;;;;;0.60;0.60;;;10.20;99.90;;;;;;5101730;28;20048;-83
2023/01/07 04:49:40;;;;;;;2.00;1.02;;;10.20;99.90;;;;;;5099907;28;20475;-82
2023/01/07 04:52:07;;;;;;;1.25;1.15;;;10.20;99.90;;;;;;5102126;28;20131;-83
2023/01/07 04:54:33;;;;;;;2.90;1.05;;;10.20;99.90;;;;;;5101791;28;20070;-84
2023/01/07 04:56:59;;;;;;;1.17;1.08;;;10.20;99.90;;;;;;5102883;28;20032;-84
2023/01/07 04:59:24;;;;;;;1.52;0.73;;;10.10;99.90;;;;;;5101460;28;20069;-84
2023/01/07 05:01:50;;;;;;;13.52;3.10;;;10.20;99.90;;;;;;5101175;28;20495;-83
2023/01/07 05:04:15;;;;;;;1.48;1.10;;;10.10;99.90;;;;;;5101848;28;20072;-83
2023/01/07 05:06:41;;;;;;;4.38;2.05;;;10.10;99.90;;;;;;5101868;28;20040;-84
2023/01/07 05:09:07;;;;;;;1.00;0.90;;;10.10;99.90;;;;;;5099862;28;20072;-83
2023/01/07 05:11:32;;;;;;;1.42;1.20;;;10.10;99.90;;;;;;5101104;28;20043;-84
2023/01/07 05:14:01;;;;;;;1.42;1.33;;;10.10;99.90;;;;;;5100011;28;20044;-84
2023/01/07 05:16:27;;;;;;;1.90;1.45;;;10.10;99.90;;;;;;5100679;28;20047;-83
2023/01/07 05:18:53;;;;;;;2.47;0.30;;;10.10;99.90;;;;;;5100488;28;20040;-83
2023/01/07 05:21:18;;;;;;;2.10;1.35;;;10.10;99.90;;;;;;5098856;28;20040;-83
2023/01/07 05:23:44;;;;;;;2.03;1.42;;;10.00;99.90;;;;;;5097409;28;20075;-83
2023/01/07 05:26:10;;;;;;;3.30;2.05;;;10.00;99.90;;;;;;5098865;28;20043;-83
2023/01/07 05:28:35;;;;;;;0.10;0.10;;;10.00;99.90;;;;;;5097530;28;20039;-82
2023/01/07 05:31:01;;;;;;;1.20;1.10;;;10.00;99.90;;;;;;5097897;28;20491;-82
2023/01/07 05:33:27;;;;;;;4.40;2.90;;;10.00;99.90;;;;;;5097523;28;20051;-83
2023/01/07 05:35:52;;;;;;;0.32;0.25;;;10.00;99.90;;;;;;5098058;28;20040;-82
2023/01/07 05:38:18;;;;;;;1.73;1.00;;;10.00;99.90;;;;;;5097209;28;20075;-83
2023/01/07 05:40:48;;;;;;;1.30;1.20;;;10.10;99.90;;;;;;5097294;28;20387;-83
2023/01/07 05:43:13;;;;;;;2.22;0.63;;;10.00;99.90;;;;;;5097455;28;20040;-83
2023/01/07 05:45:41;;;;;;;0.35;0.30;;;10.00;99.90;;;;;;5097359;28;20032;-82
2023/01/07 05:48:07;;;;;;;3.13;1.08;;;10.00;99.90;;;;;;5096841;28;20109;-83
2023/01/07 05:50:32;;;;;;;2.05;1.50;;;10.10;99.90;;;;;;5096792;28;20521;-83
2023/01/07 05:52:58;;;;;;;0.65;0.65;;;10.10;99.90;;;;;;5096882;28;20126;-83
2023/01/07 05:55:23;;;;;;;0.35;0.35;;;10.10;99.90;;;;;;5096948;28;20043;-83
2023/01/07 05:57:49;;;;;;;1.08;0.95;;;10.20;99.90;;;;;;5097081;28;20089;-83
2023/01/07 06:00:15;;;;;;;0.75;0.47;;;10.20;99.90;;;;;;5096515;28;20107;-83
2023/01/07 06:02:40;;;;;;;1.77;0.38;;;10.20;99.90;;;;;;5097344;28;20040;-84
2023/01/07 06:05:07;;;;;;;1.02;0.98;;;10.20;99.90;;;;;;5097385;28;20036;-83
2023/01/07 06:07:33;;;;;;;0.63;0.40;;;10.20;99.90;;;;;;5096669;28;20051;-83
2023/01/07 06:09:58;;;;;;;0.65;0.65;;;10.20;99.90;;;;;;5097485;28;20036;-83
2023/01/07 06:12:24;;;;;;;1.17;0.75;;;10.20;99.90;;;;;;5096965;28;20491;-83
2023/01/07 06:14:49;;;;;;;0.70;0.70;;;10.20;99.90;;;;;;5097548;28;20048;-83
2023/01/07 06:17:15;;;;;;;0.75;0.57;;;10.20;99.90;;;;;;5096787;28;20047;-83
2023/01/07 06:19:41;;;;;;;1.27;1.17;;;10.20;99.90;;;;;;5096604;28;20044;-83
2023/01/07 06:22:06;;;;;;;1.65;1.48;;;10.20;99.90;;;;;;5097238;28;20096;-83
2023/01/07 06:24:33;;;;;;;0.32;0.32;;;10.20;99.90;;;;;;5097295;28;20051;-83
2023/01/07 06:26:58;;;;;;;0.70;0.65;;;10.20;99.90;;;;;;5097120;28;20040;-83
2023/01/07 06:29:24;;;;;;;1.48;0.85;;;10.10;99.90;;;;;;5097444;28;20131;-83
2023/01/07 06:31:49;;;;;;;0.88;0.45;;;10.10;99.90;;;;;;5097709;28;20036;-83
2023/01/07 06:34:15;;;;;;;0.52;0.52;;;10.10;99.90;;;;;;5098098;28;20142;-83
2023/01/07 06:36:40;;;;;;;2.38;1.15;;;10.10;99.90;;;;;;5096212;28;20054;-83
2023/01/07 06:39:06;;;;;;;2.28;0.80;;;10.20;99.90;;;;;;5097338;28;20121;-82
2023/01/07 06:41:32;;;;;;;0.57;0.28;;;10.20;99.90;;;;;;5097119;28;20035;-82
2023/01/07 06:43:57;;;;;;;1.92;0.85;;;10.10;99.90;;;;;;5098431;28;20040;-82
2023/01/07 06:46:23;;;;;;;1.75;0.65;;;10.10;99.90;;;;;;5098326;28;20137;-83
2023/01/07 06:48:49;;;;;;;1.08;0.52;;;10.00;99.90;;;;;;5096925;28;20055;-82
2023/01/07 06:51:15;;;;;;;2.83;1.23;;;10.00;99.90;;;;;;5097459;28;20055;-83
2023/01/07 06:53:40;;;;;;;1.00;0.95;;;10.00;99.90;;;;;;5096836;28;20487;-83
2023/01/07 06:56:06;;;;;;;0.40;0.40;;;10.10;99.90;;;;;;5097251;28;20074;-82
2023/01/07 06:58:32;;;;;;;0.32;0.32;;;10.70;99.90;;;;;;5096472;28;20044;-82
2023/01/07 07:01:06;;;;;;;0.88;0.80;;;10.10;99.90;;;;;;5098003;28;20063;-83
2023/01/07 07:03:32;;;;;;;0.20;0.20;;;10.20;99.90;;;;;;5097694;28;20470;-82
2023/01/07 07:05:57;;;;;;;0.82;0.73;;;10.10;99.90;;;;;;5097329;28;20052;-82
2023/01/07 07:08:23;;;;;;;1.20;0.98;;;10.10;99.90;;;;;;5097166;28;20047;-82
2023/01/07 07:10:48;;;;;;;0.65;0.60;;;10.10;99.90;;;;;;5097180;28;20483;-82
2023/01/07 07:13:14;;;;;;;0.32;0.32;;;10.10;99.90;;;;;;5097437;28;20044;-82
2023/01/07 07:15:40;;;;;;;0.10;0.10;;;10.10;99.90;;;;;;5096028;28;20083;-83
2023/01/07 07:18:05;;;;;;;0.32;0.32;;;10.10;99.90;;;;;;5097046;28;20052;-83
2023/01/07 07:20:31;;;;;;;2.38;0.82;;;10.10;99.90;;;;;;5097233;28;20040;-82
2023/01/07 07:22:56;;;;;;;0.00;0.00;;;10.10;99.90;;;;;;5096689;28;20040;-82
2023/01/07 07:25:22;;;;;;;0.10;0.10;;;10.10;99.90;;;;;;5096189;28;20044;-82
2023/01/07 07:27:47;;;;;;;1.52;1.13;;;10.40;99.90;;;;;;5095930;28;20420;-83
2023/01/07 07:30:14;;;;;;;0.38;0.35;;;10.20;99.90;;;;;;5096117;28;20044;-82
2023/01/07 07:32:40;;;;;;;0.35;0.35;;;10.30;99.90;;;;;;5095343;28;20048;-82
2023/01/07 07:35:06;;;;;;;0.20;0.20;;;10.10;99.90;;;;;;5094283;28;20044;-82
2023/01/07 07:37:32;;;;;;;0.30;0.22;;;10.10;99.90;;;;;;5094481;28;20134;-83
2023/01/07 07:39:57;;;;;;;0.60;0.55;;;10.10;99.90;;;;;;5094784;28;20089;-83
2023/01/07 07:42:23;;;;;;;2.13;0.90;;;10.10;99.90;;;;;;5096189;28;20028;-83
2023/01/07 07:44:49;;;;;;;0.28;0.22;;;10.10;99.90;;;;;;5095795;28;20422;-83
2023/01/07 07:47:15;;;;;;;0.22;0.17;;;10.10;99.90;;;;;;5095363;28;20075;-83
2023/01/07 07:49:40;;;;;;;1.15;0.93;;;10.10;99.90;;;;;;5095317;28;20086;-83
2023/01/07 07:52:06;;;;;;;2.85;1.17;;;10.20;99.90;;;;;;5095006;28;20411;-82
2023/01/07 07:54:31;;;;;;;1.05;0.60;;;10.20;99.90;;;;;;5095774;28;20087;-82
2023/01/07 07:56:57;;;;;;;0.20;0.13;;;10.20;99.90;;;;;;5094436;28;20094;-83
2023/01/07 07:59:24;;;;;;;0.30;0.25;;;10.20;99.90;;;;;;5095603;28;20471;-83
2023/01/07 08:01:49;;;;;;;1.40;1.20;;;10.20;99.90;;;;;;5095440;28;20047;-83
2023/01/07 08:04:15;;;;;;;1.55;0.65;;;10.20;99.90;;;;;;5094390;28;20402;-83
2023/01/07 08:06:41;;;;;;;0.25;0.20;;;10.20;99.90;;;;;;5094334;28;20399;-83
2023/01/07 08:09:06;;;;;;;1.23;0.47;;;10.20;99.90;;;;;;5093623;28;20036;-83
2023/01/07 08:11:32;;;;;;;0.52;0.30;;;10.20;99.90;;;;;;5092596;28;20425;-83
2023/01/07 08:13:58;;;;;;;0.60;0.30;;;10.10;99.90;;;;;;5092892;28;20123;-83
2023/01/07 08:16:23;;;;;;;1.10;0.85;;;10.10;99.90;;;;;;5093762;28;20422;-83
2023/01/07 08:18:49;;;;;;;0.25;0.20;;;10.10;99.90;;;;;;5095356;28;20032;-83
2023/01/07 08:21:15;;;;;;;0.10;0.10;;;10.10;99.90;;;;;;5095632;28;20040;-83
2023/01/07 08:23:40;;;;;;;0.00;0.00;;;10.10;99.90;;;;;;5093779;28;20367;-83
2023/01/07 08:26:06;;;;;;;0.28;0.28;;;10.20;99.90;;;;;;5093890;28;20055;-83
2023/01/07 08:28:32;;;;;;;0.98;0.65;;;10.20;99.90;;;;;;5093083;28;20086;-83
2023/01/07 08:31:06;;;;;;;0.00;0.00;;;10.20;99.90;;;;;;5093916;28;20089;-83
2023/01/07 08:33:36;;;;;;;0.15;0.15;;;10.10;99.90;;;;;;5093668;28;20085;-83
2023/01/07 08:36:03;;;;;;;2.45;1.20;;;10.10;99.90;;;;;;5092692;28;20048;-83
2023/01/07 08:38:30;;;;;;;0.75;0.45;;;10.20;99.90;;;;;;5093488;28;20048;-83
2023/01/07 08:40:56;;;;;;;0.15;0.13;;;10.20;99.90;;;;;;5091590;28;20109;-83
2023/01/07 08:43:23;;;;;;;0.40;0.20;;;10.20;99.90;;;;;;5094004;28;20058;-83
2023/01/07 08:45:49;;;;;;;0.05;0.05;;;10.30;99.90;;;;;;5094837;28;20395;-83
2023/01/07 08:48:15;;;;;;;0.15;0.15;;;10.30;99.90;;;;;;5092840;28;20063;-83
2023/01/07 08:50:40;;;;;;;0.20;0.20;;;10.30;99.90;;;;;;5094106;28;20066;-83
2023/01/07 08:53:06;;;;;;;0.10;0.10;;;10.40;99.90;;;;;;5092489;28;20047;-83
2023/01/07 08:55:31;;;;;;;0.52;0.52;;;10.40;99.90;;;;;;5093765;28;20040;-83
2023/01/07 08:57:57;;;;;;;0.40;0.32;;;10.40;99.90;;;;;;5092851;28;20048;-83
2023/01/07 09:00:23;;;;;;;0.40;0.40;;;10.40;99.90;;;;;;5092556;28;20050;-84
2023/01/07 09:02:49;;;;;;;0.57;0.47;;;10.40;99.90;;;;;;5092352;28;20047;-83
2023/01/07 09:05:15;;;;;;;1.55;0.65;;;10.40;99.90;;;;;;5093677;28;20036;-83
2023/01/07 09:07:40;;;;;;;0.50;0.50;;;10.30;99.90;;;;;;5092832;28;20044;-83
2023/01/07 09:10:07;;;;;;;0.00;0.00;;;10.20;99.90;;;;;;5092835;28;20582;-83
2023/01/07 09:12:36;;;;;;;0.22;0.22;;;10.20;99.90;;;;;;5097277;28;20079;-83
2023/01/07 09:15:01;;;;;;;0.40;0.38;;;10.10;99.90;;;;;;5101344;28;20442;-83
2023/01/07 09:17:27;;;;;;;0.10;0.10;;;10.10;99.90;;;;;;5096580;28;20047;-83
2023/01/07 09:19:53;;;;;;;0.00;0.00;;;10.20;99.90;;;;;;5091100;28;20071;-84
2023/01/07 09:22:18;;;;;;;1.00;0.32;;;10.20;99.90;;;;;;5092776;28;20040;-83
2023/01/07 09:24:44;;;;;;;1.05;0.60;;;10.10;99.90;;;;;;5092546;28;21095;-84
2023/01/07 09:27:10;;;;;;;0.40;0.20;;;10.10;99.90;;;;;;5091762;28;20400;-83
2023/01/07 09:29:35;;;;;;;0.60;0.57;;;10.10;99.90;;;;;;5092327;28;20032;-83
2023/01/07 09:32:01;;;;;;;0.65;0.32;;;10.00;99.90;;;;;;5093057;28;20039;-84
2023/01/07 09:34:27;;;;;;;1.48;0.52;;;10.10;99.90;;;;;;5092134;28;20111;-83
2023/01/07 09:36:52;;;;;;;0.10;0.10;;;10.10;99.90;;;;;;5092273;28;20475;-83
2023/01/07 09:39:18;;;;;;;0.25;0.15;;;10.00;99.90;;;;;;5090745;28;20048;-83
2023/01/07 09:42:08;;;;;;;0.00;0.00;;;10.00;99.90;;;;;;5090712;28;20043;-83
2023/01/07 09:44:37;;;;;;;0.20;0.10;;;9.90;99.90;;;;;;5089792;28;20048;-83
2023/01/07 09:47:04;;;;;;;0.00;0.00;;;9.90;99.90;;;;;;5092650;28;20050;-83
2023/01/07 09:49:31;;;;;;;1.50;0.77;;;9.90;99.90;;;;;;5107055;27;20045;-83
2023/01/07 09:52:22;;;;;;;0.38;0.38;;;9.90;99.90;;;;;;5091662;28;20109;-83
2023/01/07 09:54:52;;;;;;;0.30;0.20;;;9.90;99.90;;;;;;5090261;28;20040;-83
2023/01/07 09:57:17;;;;;;;0.70;0.25;;;9.90;99.90;;;;;;5088868;28;20118;-83
2023/01/07 09:59:44;;;;;;;0.35;0.20;;;9.90;99.90;;;;;;5092046;28;20503;-83
2023/01/07 10:02:58;;;;;;;12.18;0.60;;;9.90;99.90;;;;;;5091303;28;20040;-83
2023/01/07 10:05:38;;;;;;;0.20;0.20;;;9.90;99.90;;;;;;5075372;28;20388;-83
2023/01/07 10:08:39;;;;;;;1.48;0.90;;;10.00;99.90;;;;;;5088376;28;20040;-83
2023/01/07 10:11:04;;;;;;;0.08;0.08;;;10.00;99.90;;;;;;5089567;28;20449;-83
2023/01/07 10:14:08;;;;;;;1.20;0.60;;;10.00;99.90;;;;;;5093203;28;20052;-83
2023/01/07 10:16:41;;;;;;;0.43;0.22;;;10.00;99.90;;;;;;5092333;28;20048;-83
2023/01/07 10:19:34;;;;;;;0.80;0.63;;;10.10;96.50;;;;;;5092164;28;20051;-83
2023/01/07 10:22:15;;;;;;;0.10;0.10;;;10.00;99.90;;;;;;5090708;28;20051;-83
2023/01/07 10:24:45;;;;;;;0.05;0.05;;;10.00;99.90;;;;;;5096493;28;20059;-83
2023/01/07 10:27:13;;;;;;;0.40;0.40;;;10.00;15.70;;;;;;5097040;28;20387;-81
2023/01/07 10:29:47;;;;;;;0.08;0.08;;;10.10;49.20;;;;;;5091703;28;20095;-83
2023/01/07 10:32:23;;;;;;;0.55;0.40;;;10.00;13.70;;;;;;5094784;28;20056;-78
2023/01/07 10:34:54;;;;;;;7.47;0.88;;;10.10;58.70;;;;;;5095058;28;20048;-83
2023/01/07 10:37:37;;;;;;;9.75;0.63;;;10.30;99.90;;;;;;5094825;28;20051;-84
2023/01/07 10:40:10;;;;;;;0.00;0.00;;;10.50;1.00;;;;;;5095396;28;20056;-83
2023/01/07 10:42:51;;;;;;;0.20;0.10;;;10.70;99.90;;;;;;5093775;28;20048;-83
2023/01/07 10:45:35;;;;;;;0.30;0.25;;;10.80;99.90;;;;;;5093077;28;20056;-83
2023/01/07 10:48:43;;;;;;;0.40;0.10;;;10.80;86.80;;;;;;5091840;28;20062;-83
2023/01/07 10:51:36;;;;;;;1.70;1.60;;;10.90;1.00;;;;;;5092400;28;20130;-84
2023/01/07 10:54:33;;;;;;;0.10;0.10;;;11.00;82.70;;;;;;5092151;28;20058;-84
2023/01/07 10:57:10;;;;;;;0.25;0.25;;;11.00;1.00;;;;;;5091820;28;20056;-84
2023/01/07 10:59:35;;;;;;;0.00;0.00;;;11.10;99.90;;;;;;5091154;28;20047;-83
2023/01/07 11:02:02;;;;;;;0.00;0.00;;;11.00;99.90;;;;;;5091571;28;20036;-83
2023/01/07 11:04:27;;;;;;;1.55;0.98;;;11.10;1.00;;;;;;5090773;28;20040;-84
2023/01/07 11:07:05;;;;;;;0.00;0.00;;;11.10;1.00;;;;;;5090085;28;20048;-83
2023/01/07 11:09:41;;;;;;;0.00;0.00;;;11.10;93.80;;;;;;5084879;28;20043;-84
2023/01/07 11:12:26;;;;;;;0.00;0.00;;;11.20;49.20;;;;;;5091394;28;20039;-83
2023/01/07 11:14:53;;;;;;;0.00;0.00;;;11.20;1.00;;;;;;5091730;28;20048;-83
2023/01/07 11:17:54;;;;;;;0.20;0.20;;;11.20;1.00;;;;;;5092102;28;20040;-83
2023/01/07 11:20:48;;;;;;;0.13;0.13;;;11.30;1.00;;;;;;5079711;28;20052;-83
2023/01/07 11:23:26;;;;;;;0.00;0.00;;;11.40;99.90;;;;;;5092687;28;20063;-83
2023/01/07 11:25:52;;;;;;;0.00;0.00;;;11.50;99.90;;;;;;5092676;28;20074;-83
2023/01/07 11:28:20;;;;;;;0.00;0.00;;;11.50;1.00;;;;;;5092282;28;20089;-83
2023/01/07 11:30:56;;;;;;;0.15;0.15;;;11.60;99.90;;;;;;5091910;28;20052;-83
2023/01/07 11:33:26;;;;;;;0.40;0.28;;;11.60;1.00;;;;;;5072019;28;20131;-83
2023/01/07 11:35:54;;;;;;;0.00;0.00;;;11.60;1.00;;;;;;5093397;28;20032;-84
2023/01/07 11:38:34;;;;;;;0.20;0.20;;;11.60;99.90;;;;;;5094284;28;20143;-83
2023/01/07 11:41:01;;;;;;;0.00;0.00;;;11.60;40.30;;;;;;5098110;28;20048;-83
2023/01/07 11:43:37;;;;;;;0.20;0.20;;;11.60;99.90;;;;;;5103649;28;20035;-83
2023/01/07 11:46:05;;;;;;;0.03;0.03;;;11.60;99.90;;;;;;5092611;28;20052;-83
2023/01/07 11:48:36;;;;;;;1.90;0.52;;;11.70;1.00;;;;;;5094548;28;20048;-83
2023/01/07 11:51:09;;;;;;;0.10;0.10;;;11.60;64.40;;;;;;5097722;28;20165;-84
2023/01/07 11:53:57;;;;;;;0.52;0.52;;;11.60;1.70;;;;;;5100006;28;20048;-83
2023/01/07 11:56:26;;;;;;;0.22;0.22;;;12.10;1.00;;;;;;5091303;28;20039;-84
2023/01/07 11:59:10;;;;;;;0.00;0.00;;;11.60;1.00;;;;;;5097237;28;20563;-83
2023/01/07 12:01:45;;;;;;;0.05;0.03;;;11.60;92.80;;;;;;5095500;28;20558;-84
2023/01/07 12:04:24;;;;;;;0.00;0.00;;;11.60;1.00;;;;;;5097517;28;20046;-83
2023/01/07 12:06:53;;;;;;;0.00;0.00;;;11.50;1.00;;;;;;5096845;28;20044;-84
2023/01/07 12:09:31;;;;;;;0.05;0.05;;;11.50;1.00;;;;;;5098604;28;20452;-83
2023/01/07 12:12:30;;;;;;;1.08;0.40;;;11.50;1.00;;;;;;5098886;28;20471;-83
2023/01/07 12:14:58;;;;;;;0.00;0.00;;;11.60;99.90;;;;;;5100295;28;20095;-83
2023/01/07 12:17:26;;;;;;;0.68;0.68;;;11.60;99.90;;;;;;5098009;28;20036;-83
2023/01/07 12:20:01;;;;;;;0.00;0.00;;;11.70;99.90;;;;;;5087234;28;20072;-83
2023/01/07 12:22:36;;;;;;;0.77;0.35;;;11.10;99.90;;;;;;5098546;28;20479;-83
2023/01/07 12:25:36;;;;;;;0.00;0.00;;;11.60;99.90;;;;;;5097618;28;20047;-83
2023/01/07 12:28:17;;;;;;;1.00;0.52;;;11.60;99.90;;;;;;5097875;28;20050;-82
2023/01/07 12:31:16;;;;;;;0.03;0.03;;;11.70;99.90;;;;;;5099836;28;20550;-82
2023/01/07 12:34:03;;;;;;;0.10;0.10;;;11.70;99.90;;;;;;5099511;28;20044;-82
2023/01/07 12:36:48;;;;;;;0.22;0.17;;;11.90;99.90;;;;;;5081344;28;20052;-83
2023/01/07 12:39:29;;;;;;;0.10;0.10;;;11.90;26.90;;;;;;5098657;28;20509;-82
2023/01/07 12:42:27;;;;;;;0.57;0.20;;;11.80;1.10;;;;;;5099636;28;20048;-83
2023/01/07 12:44:58;;;;;;;0.00;0.00;;;11.80;39.00;;;;;;5100154;28;20121;-82
2023/01/07 12:47:30;;;;;;;0.98;0.40;;;12.00;1.00;;;;;;5099527;28;20044;-83
2023/01/07 12:50:20;;;;;;;0.03;0.03;;;11.90;99.90;;;;;;5100244;28;20064;-82
2023/01/07 12:53:15;;;;;;;0.47;0.47;;;12.00;99.90;;;;;;5092917;28;20087;-82
2023/01/07 12:55:59;;;;;;;0.00;0.00;;;11.80;99.90;;;;;;5096472;28;20040;-83
2023/01/07 12:58:44;;;;;;;1.08;0.20;;;11.90;99.90;;;;;;5101120;28;20089;-83
2023/01/07 13:01:34;;;;;;;0.08;0.08;;;12.00;99.90;;;;;;5100553;28;20177;-83
2023/01/07 13:04:29;;;;;;;0.00;0.00;;;11.90;99.90;;;;;;5098147;28;20052;-83
2023/01/07 13:07:20;;;;;;;0.00;0.00;;;11.80;99.90;;;;;;5081264;28;20109;-80
2023/01/07 13:09:52;;;;;;;0.10;0.10;;;11.90;99.90;;;;;;5086657;28;20052;-82
2023/01/07 13:12:47;;;;;;;0.20;0.20;;;11.90;35.30;;;;;;5105010;28;20055;-83